createdAt,value
2017-08-16T00:01:13.339Z,99.90
2017-08-16T00:03:43.308Z,99.90
2017-08-16T00:06:11.735Z,99.90
2017-08-16T00:08:40.599Z,99.90
2017-08-16T00:11:09.113Z,99.90
2017-08-16T00:13:39.008Z,99.90
2017-08-16T00:16:08.575Z,99.90
2017-08-16T00:18:37.836Z,99.90
2017-08-16T00:21:07.098Z,99.90
2017-08-16T00:23:35.538Z,99.90
2017-08-16T00:26:04.044Z,99.90
2017-08-16T00:28:32.481Z,99.90
2017-08-16T00:31:00.908Z,99.90
2017-08-16T00:33:30.509Z,99.90
2017-08-16T00:35:58.943Z,99.90
2017-08-16T00:38:27.801Z,99.90
2017-08-16T00:40:56.724Z,99.90
2017-08-16T00:43:25.152Z,99.90
2017-08-16T00:45:53.974Z,99.90
2017-08-16T00:48:22.454Z,99.90
2017-08-16T00:50:51.296Z,99.90
2017-08-16T00:53:20.166Z,99.90
2017-08-16T00:55:48.603Z,99.90
2017-08-16T00:58:17.536Z,99.90
2017-08-16T01:00:45.720Z,99.90
2017-08-16T01:03:14.155Z,99.90
2017-08-16T01:05:43.400Z,99.90
2017-08-16T01:08:11.834Z,99.90
2017-08-16T01:10:41.847Z,99.90
2017-08-16T01:13:11.417Z,99.90
2017-08-16T01:15:39.858Z,99.90
2017-08-16T01:18:08.284Z,99.90
2017-08-16T01:20:37.183Z,99.90
2017-08-16T01:23:05.604Z,99.90
2017-08-16T01:25:34.523Z,99.90
2017-08-16T01:28:03.344Z,99.90
2017-08-16T01:30:31.605Z,99.90
2017-08-16T01:33:01.815Z,99.90
2017-08-16T01:35:31.017Z,99.90
2017-08-16T01:37:59.447Z,99.90
2017-08-16T01:40:28.312Z,99.90
2017-08-16T01:42:57.563Z,99.90
2017-08-16T01:45:26.040Z,99.90
2017-08-16T01:47:54.496Z,99.90
2017-08-16T01:50:23.599Z,99.90
2017-08-16T01:52:52.448Z,99.90
2017-08-16T01:55:21.929Z,99.90
2017-08-16T01:57:50.758Z,99.90
2017-08-16T02:00:19.976Z,99.90
2017-08-16T02:02:48.418Z,99.90
2017-08-16T02:05:17.681Z,99.90
2017-08-16T02:07:47.257Z,99.90
2017-08-16T02:10:15.735Z,99.90
2017-08-16T02:12:44.187Z,99.90
2017-08-16T02:15:12.621Z,99.90
2017-08-16T02:17:41.856Z,99.90
2017-08-16T02:20:10.727Z,99.90
2017-08-16T02:22:39.168Z,99.90
2017-08-16T02:25:08.411Z,99.90
2017-08-16T02:27:36.852Z,99.90
2017-08-16T02:30:06.077Z,99.90
2017-08-16T02:32:34.574Z,99.90
2017-08-16T02:35:03.057Z,99.90
2017-08-16T02:37:31.886Z,99.90
2017-08-16T02:40:00.710Z,99.90
2017-08-16T02:42:29.587Z,99.90
2017-08-16T02:44:58.402Z,99.90
2017-08-16T02:47:26.844Z,99.90
2017-08-16T02:49:56.091Z,99.90
2017-08-16T02:52:24.931Z,99.90
2017-08-16T02:54:53.444Z,99.90
2017-08-16T02:57:21.596Z,99.90
2017-08-16T02:59:50.851Z,99.90
2017-08-16T03:02:19.288Z,99.90
2017-08-16T03:04:48.564Z,99.90
2017-08-16T03:07:17.089Z,99.90
2017-08-16T03:09:45.562Z,99.90
2017-08-16T03:12:13.659Z,99.90
2017-08-16T03:14:41.825Z,99.90
2017-08-16T03:17:09.598Z,99.90
2017-08-16T03:19:39.271Z,99.90
2017-08-16T03:22:07.411Z,99.90
2017-08-16T03:24:35.980Z,99.90
2017-08-16T03:27:04.508Z,99.90
2017-08-16T03:29:32.268Z,99.90
2017-08-16T03:34:30.625Z,99.90
2017-08-16T03:36:59.103Z,99.90
2017-08-16T03:39:27.683Z,99.90
2017-08-16T03:41:56.191Z,99.90
2017-08-16T03:44:24.700Z,99.90
2017-08-16T03:46:54.354Z,99.90
2017-08-16T03:49:22.507Z,99.90
2017-08-16T03:51:50.629Z,99.90
2017-08-16T03:54:19.550Z,99.90
2017-08-16T03:56:47.374Z,99.90
2017-08-16T03:59:15.919Z,99.90
2017-08-16T04:01:44.074Z,99.90
2017-08-16T04:04:12.593Z,99.90
2017-08-16T04:06:41.464Z,99.90
2017-08-16T04:09:09.935Z,99.90
2017-08-16T04:11:38.461Z,99.90
2017-08-16T04:14:06.598Z,99.90
2017-08-16T04:16:35.525Z,99.90
2017-08-16T04:19:04.038Z,99.90
2017-08-16T04:21:32.532Z,99.90
2017-08-16T04:24:00.685Z,99.90
2017-08-16T04:26:29.520Z,99.90
2017-08-16T04:28:57.296Z,99.90
2017-08-16T04:31:26.195Z,99.90
2017-08-16T04:33:54.691Z,99.90
2017-08-16T04:36:23.193Z,99.90
2017-08-16T04:38:53.213Z,99.90
2017-08-16T04:41:22.096Z,99.90
2017-08-16T04:43:49.935Z,99.90
2017-08-16T04:46:18.400Z,99.90
2017-08-16T04:48:47.257Z,99.90
2017-08-16T04:51:15.071Z,99.90
2017-08-16T04:53:43.928Z,99.90
2017-08-16T04:56:12.811Z,99.90
2017-08-16T04:58:40.564Z,99.90
2017-08-16T05:01:09.508Z,99.90
2017-08-16T05:03:37.620Z,99.90
2017-08-16T05:06:06.854Z,99.90
2017-08-16T05:08:35.373Z,99.90
2017-08-16T05:11:04.231Z,99.90
2017-08-16T05:13:32.381Z,99.90
2017-08-16T05:16:01.594Z,99.90
2017-08-16T05:18:31.581Z,99.90
2017-08-16T05:20:59.728Z,99.90
2017-08-16T05:23:28.319Z,99.90
2017-08-16T05:25:56.856Z,99.90
2017-08-16T05:28:25.311Z,99.90
2017-08-16T05:30:54.279Z,99.90
2017-08-16T05:33:23.207Z,99.90
2017-08-16T05:35:51.317Z,99.90
2017-08-16T05:38:19.909Z,99.90
2017-08-16T05:40:48.764Z,99.90
2017-08-16T05:43:17.219Z,99.90
2017-08-16T05:45:45.047Z,99.90
2017-08-16T05:48:15.161Z,99.90
2017-08-16T05:53:13.837Z,99.90
2017-08-16T05:55:42.281Z,99.90
2017-08-16T05:58:11.544Z,99.90
2017-08-16T06:00:40.367Z,99.90
2017-08-16T06:03:08.811Z,99.90
2017-08-16T06:05:37.710Z,99.90
2017-08-16T06:08:06.138Z,99.90
2017-08-16T06:10:34.963Z,99.90
2017-08-16T06:15:33.672Z,99.90
2017-08-16T06:18:02.102Z,99.90
2017-08-16T06:20:30.617Z,99.90
2017-08-16T06:22:59.824Z,99.90
2017-08-16T06:25:28.253Z,99.90
2017-08-16T06:27:58.233Z,99.90
2017-08-16T06:30:26.673Z,99.90
2017-08-16T06:32:55.503Z,99.90
2017-08-16T06:35:24.017Z,92.70
2017-08-16T06:37:53.198Z,86.10
2017-08-16T06:40:22.037Z,81.50
2017-08-16T06:42:50.894Z,82.60
2017-08-16T06:47:48.861Z,78.60
2017-08-16T06:50:17.728Z,83.10
2017-08-16T06:52:47.293Z,83.20
2017-08-16T06:55:15.871Z,84.60
2017-08-16T06:57:45.133Z,77.90
2017-08-16T07:00:13.581Z,82.70
2017-08-16T07:02:42.072Z,84.10
2017-08-16T07:05:10.509Z,79.80
2017-08-16T07:07:39.363Z,79.60
2017-08-16T07:10:07.807Z,80.50
2017-08-16T07:12:37.519Z,81.00
2017-08-16T07:15:05.963Z,81.10
2017-08-16T07:17:35.529Z,78.20
2017-08-16T07:20:04.000Z,77.60
2017-08-16T07:22:33.242Z,78.10
2017-08-16T07:25:02.085Z,76.40
2017-08-16T07:27:30.567Z,77.20
2017-08-16T07:29:59.005Z,76.20
2017-08-16T07:32:27.426Z,75.50
2017-08-16T07:34:56.407Z,76.70
2017-08-16T07:37:24.823Z,79.50
2017-08-16T07:39:53.688Z,77.80
2017-08-16T07:42:22.516Z,72.90
2017-08-16T07:44:50.982Z,73.80
2017-08-16T07:47:19.854Z,72.10
2017-08-16T07:49:48.695Z,69.80
2017-08-16T07:52:17.888Z,71.50
2017-08-16T08:02:29.680Z,66.50
2017-08-16T08:04:58.869Z,63.70
2017-08-16T08:07:27.683Z,65.50
2017-08-16T08:12:26.171Z,59.10
2017-08-16T08:14:55.384Z,58.60
2017-08-16T08:17:24.276Z,57.30
2017-08-16T08:19:53.467Z,55.30
2017-08-16T08:22:21.897Z,46.40
2017-08-16T08:24:50.371Z,41.10
2017-08-16T08:27:18.790Z,38.10
2017-08-16T08:29:47.261Z,38.70
2017-08-16T08:32:17.233Z,37.10
2017-08-16T08:34:46.458Z,35.80
2017-08-16T08:37:16.442Z,34.50
2017-08-16T08:39:45.677Z,37.20
2017-08-16T08:42:14.246Z,43.40
2017-08-16T08:44:42.684Z,46.30
2017-08-16T08:47:12.259Z,45.20
2017-08-16T08:49:41.080Z,45.40
2017-08-16T08:52:09.567Z,43.60
2017-08-16T08:54:38.763Z,41.60
2017-08-16T08:57:07.179Z,45.80
2017-08-16T08:59:35.635Z,46.30
2017-08-16T09:02:04.448Z,49.00
2017-08-16T09:04:33.643Z,52.80
2017-08-16T09:07:02.859Z,53.70
2017-08-16T09:09:31.318Z,52.10
2017-08-16T09:11:59.746Z,51.00
2017-08-16T09:14:28.613Z,44.70
2017-08-16T09:16:57.867Z,39.80
2017-08-16T09:19:26.720Z,36.60
2017-08-16T09:21:55.556Z,37.70
2017-08-16T09:24:24.074Z,38.70
2017-08-16T09:26:52.528Z,36.50
2017-08-16T09:29:21.389Z,37.40
2017-08-16T09:31:49.749Z,35.00
2017-08-16T09:34:18.189Z,35.60
2017-08-16T09:36:46.661Z,32.70
2017-08-16T09:39:15.484Z,29.50
2017-08-16T09:41:45.431Z,32.90
2017-08-16T09:44:15.031Z,33.60
2017-08-16T09:46:43.848Z,33.40
2017-08-16T09:49:13.092Z,32.40
2017-08-16T09:51:42.289Z,32.50
2017-08-16T09:54:10.776Z,32.20
2017-08-16T09:56:39.999Z,34.60
2017-08-16T09:59:09.241Z,30.50
2017-08-16T10:01:38.071Z,31.50
2017-08-16T10:04:07.285Z,35.40
2017-08-16T10:06:36.895Z,37.40
2017-08-16T10:09:06.093Z,41.60
2017-08-16T10:11:35.326Z,39.30
2017-08-16T10:14:04.512Z,34.90
2017-08-16T10:16:32.997Z,33.40
2017-08-16T10:19:02.240Z,31.90
2017-08-16T10:21:31.440Z,32.30
2017-08-16T10:23:59.945Z,31.20
2017-08-16T10:26:28.410Z,31.10
2017-08-16T10:28:57.233Z,33.40
2017-08-16T10:31:26.496Z,31.30
2017-08-16T10:33:54.925Z,27.50
2017-08-16T10:36:24.141Z,28.30
2017-08-16T10:38:53.386Z,26.30
2017-08-16T10:41:23.698Z,24.60
2017-08-16T10:43:52.528Z,24.60
2017-08-16T10:46:20.961Z,26.00
2017-08-16T10:48:49.440Z,30.00
2017-08-16T10:51:19.020Z,29.90
2017-08-16T10:53:47.480Z,28.20
2017-08-16T10:56:16.718Z,27.70
2017-08-16T10:58:45.156Z,25.70
2017-08-16T11:01:14.011Z,30.80
2017-08-16T11:03:42.458Z,33.40
2017-08-16T11:06:10.990Z,32.90
2017-08-16T11:08:39.492Z,33.20
2017-08-16T11:11:08.001Z,32.30
2017-08-16T11:13:37.277Z,30.70
2017-08-16T11:16:06.489Z,31.10
2017-08-16T11:18:35.319Z,27.50
2017-08-16T11:21:04.152Z,28.10
2017-08-16T11:23:32.982Z,28.80
2017-08-16T11:26:01.484Z,30.20
2017-08-16T11:28:30.315Z,31.90
2017-08-16T11:30:59.931Z,33.00
2017-08-16T11:33:28.775Z,35.40
2017-08-16T11:35:58.356Z,31.20
2017-08-16T11:38:27.584Z,31.70
2017-08-16T11:40:56.048Z,31.50
2017-08-16T11:43:24.598Z,28.90
2017-08-16T11:45:53.037Z,29.30
2017-08-16T11:48:22.237Z,25.80
2017-08-16T11:50:50.714Z,24.90
2017-08-16T11:53:20.961Z,26.60
2017-08-16T11:55:50.162Z,25.70
2017-08-16T11:58:19.021Z,24.30
2017-08-16T12:00:48.602Z,24.90
2017-08-16T12:03:18.213Z,31.50
2017-08-16T12:05:46.660Z,34.00
2017-08-16T12:08:16.603Z,34.80
2017-08-16T12:10:45.105Z,33.90
2017-08-16T12:13:13.947Z,30.60
2017-08-16T12:15:42.380Z,29.10
2017-08-16T12:18:11.625Z,30.90
2017-08-16T12:20:40.449Z,33.50
2017-08-16T12:23:09.275Z,34.80
2017-08-16T12:25:37.741Z,39.20
2017-08-16T12:28:06.943Z,41.20
2017-08-16T12:30:36.557Z,43.50
2017-08-16T12:33:06.168Z,42.70
2017-08-16T12:35:34.609Z,45.60
2017-08-16T12:38:03.105Z,46.50
2017-08-16T12:40:33.097Z,44.50
2017-08-16T12:43:01.568Z,47.50
2017-08-16T12:45:31.129Z,45.00
2017-08-16T12:47:59.607Z,42.10
2017-08-16T12:50:28.049Z,40.30
2017-08-16T12:52:57.049Z,38.30
2017-08-16T12:55:25.520Z,39.00
2017-08-16T12:57:53.991Z,38.10
2017-08-16T13:00:22.832Z,38.80
2017-08-16T13:02:51.266Z,38.30
2017-08-16T13:05:19.743Z,37.40
2017-08-16T13:07:48.610Z,38.20
2017-08-16T13:10:17.651Z,35.40
2017-08-16T13:12:46.091Z,35.00
2017-08-16T13:15:14.988Z,34.40
2017-08-16T13:17:43.827Z,31.50
2017-08-16T13:20:12.708Z,33.10
2017-08-16T13:22:42.279Z,35.00
2017-08-16T13:25:10.722Z,34.20
2017-08-16T13:27:40.671Z,36.70
2017-08-16T13:30:09.130Z,35.90
2017-08-16T13:32:38.336Z,36.20
2017-08-16T13:35:06.868Z,38.10
2017-08-16T13:37:35.412Z,36.80
2017-08-16T13:40:04.987Z,37.00
2017-08-16T13:42:33.086Z,38.80
2017-08-16T13:47:31.011Z,38.00
2017-08-16T13:49:59.497Z,36.60
2017-08-16T13:52:27.989Z,35.90
2017-08-16T13:54:57.936Z,36.70
2017-08-16T13:57:26.789Z,37.70
2017-08-16T13:59:55.265Z,37.80
2017-08-16T14:02:24.478Z,36.30
2017-08-16T14:04:53.352Z,33.40
2017-08-16T14:07:21.786Z,33.50
2017-08-16T14:09:51.039Z,35.70
2017-08-16T14:12:20.599Z,37.20
2017-08-16T14:14:49.492Z,39.70
2017-08-16T14:17:18.332Z,42.30
2017-08-16T14:19:48.209Z,43.10
2017-08-16T14:22:16.698Z,46.90
2017-08-16T14:24:45.579Z,49.10
2017-08-16T14:27:15.533Z,49.40
2017-08-16T14:32:13.472Z,49.40
2017-08-16T14:34:42.310Z,46.10
2017-08-16T14:37:11.543Z,43.60
2017-08-16T14:39:40.394Z,41.90
2017-08-16T14:42:09.459Z,42.00
2017-08-16T14:44:38.290Z,43.50
2017-08-16T14:47:07.330Z,45.60
2017-08-16T14:52:06.019Z,47.70
2017-08-16T14:54:34.454Z,48.70
2017-08-16T14:59:33.233Z,49.10
2017-08-16T15:02:03.183Z,51.00
2017-08-16T15:04:31.636Z,49.90
2017-08-16T15:07:00.154Z,51.50
2017-08-16T15:09:28.737Z,50.80
2017-08-16T15:11:58.278Z,47.40
2017-08-16T15:14:27.144Z,43.50
2017-08-16T15:16:56.395Z,40.80
2017-08-16T15:19:24.863Z,40.60
2017-08-16T15:21:54.056Z,38.00
2017-08-16T15:24:22.499Z,38.60
2017-08-16T15:26:50.987Z,38.60
2017-08-16T15:29:20.201Z,42.00
2017-08-16T15:31:50.522Z,44.50
2017-08-16T15:34:20.493Z,43.80
2017-08-16T15:39:18.784Z,44.90
2017-08-16T15:41:47.224Z,46.30
2017-08-16T15:44:15.698Z,48.60
2017-08-16T15:49:13.618Z,51.10
2017-08-16T15:51:42.813Z,52.80
2017-08-16T15:54:12.834Z,54.50
2017-08-16T15:56:41.669Z,55.10
2017-08-16T15:59:10.496Z,53.80
2017-08-16T16:01:39.362Z,53.70
2017-08-16T16:04:07.799Z,52.70
2017-08-16T16:11:35.961Z,54.20
2017-08-16T16:14:04.473Z,54.60
2017-08-16T16:16:33.298Z,54.80
2017-08-16T16:19:01.752Z,56.70
2017-08-16T16:21:30.619Z,57.20
2017-08-16T16:26:29.243Z,58.70
2017-08-16T16:28:58.116Z,59.10
2017-08-16T16:31:26.614Z,59.30
2017-08-16T16:33:55.453Z,58.90
2017-08-16T16:36:23.934Z,58.70
2017-08-16T16:38:53.890Z,60.30
2017-08-16T16:41:22.322Z,59.30
2017-08-16T16:43:50.762Z,60.00
2017-08-16T16:46:19.213Z,59.40
2017-08-16T16:48:47.734Z,60.40
2017-08-16T16:51:17.686Z,60.20
2017-08-16T16:53:46.139Z,60.50
2017-08-16T16:56:14.586Z,60.90
2017-08-16T16:58:43.409Z,62.20
2017-08-16T17:01:12.639Z,62.70
2017-08-16T17:03:42.624Z,63.10
2017-08-16T17:06:11.060Z,64.30
2017-08-16T17:08:39.508Z,64.70
2017-08-16T17:11:09.525Z,65.60
2017-08-16T17:13:38.732Z,66.80
2017-08-16T17:16:09.227Z,66.10
2017-08-16T17:18:37.664Z,65.70
2017-08-16T17:21:06.887Z,65.50
2017-08-16T17:23:35.752Z,65.80
2017-08-16T17:26:04.200Z,66.80
2017-08-16T17:28:33.858Z,66.00
2017-08-16T17:31:02.352Z,65.90
2017-08-16T17:33:31.550Z,66.40
2017-08-16T17:36:00.038Z,67.10
2017-08-16T17:38:30.082Z,68.10
2017-08-16T17:40:58.547Z,69.00
2017-08-16T17:43:27.015Z,69.00
2017-08-16T17:45:56.597Z,69.40
2017-08-16T17:48:25.901Z,69.20
2017-08-16T17:50:54.340Z,68.90
2017-08-16T17:53:23.227Z,68.50
2017-08-16T17:55:51.664Z,69.00
2017-08-16T17:58:20.491Z,68.90
2017-08-16T18:00:49.741Z,67.90
2017-08-16T18:03:18.574Z,68.20
2017-08-16T18:05:48.144Z,70.60
2017-08-16T18:08:16.609Z,71.60
2017-08-16T18:10:45.047Z,72.50
2017-08-16T18:13:13.530Z,73.40
2017-08-16T18:15:42.380Z,74.60
2017-08-16T18:18:10.831Z,76.00
2017-08-16T18:20:40.075Z,76.70
2017-08-16T18:23:09.646Z,74.70
2017-08-16T18:25:39.218Z,74.60
2017-08-16T18:28:07.657Z,74.90
2017-08-16T18:30:36.098Z,75.30
2017-08-16T18:33:04.576Z,75.80
2017-08-16T18:35:34.537Z,76.20
2017-08-16T18:38:03.563Z,76.50
2017-08-16T18:43:01.907Z,73.80
2017-08-16T18:45:30.356Z,73.60
2017-08-16T18:47:59.571Z,73.80
2017-08-16T18:50:28.450Z,72.00
2017-08-16T18:52:57.644Z,71.70
2017-08-16T18:57:56.020Z,71.30
2017-08-16T19:00:25.587Z,71.70
2017-08-16T19:02:54.828Z,71.70
2017-08-16T19:07:52.846Z,73.40
2017-08-16T19:10:21.281Z,75.50
2017-08-16T19:12:50.520Z,75.90
2017-08-16T19:15:19.354Z,77.20
2017-08-16T19:17:48.557Z,77.40
2017-08-16T19:20:17.432Z,77.80
2017-08-16T19:22:46.667Z,78.40
2017-08-16T19:25:15.142Z,75.80
2017-08-16T19:27:43.608Z,79.00
2017-08-16T19:30:12.478Z,79.20
2017-08-16T19:32:40.927Z,80.90
2017-08-16T19:35:09.765Z,82.20
2017-08-16T19:37:39.761Z,82.30
2017-08-16T19:40:08.595Z,81.60
2017-08-16T19:42:37.420Z,81.20
2017-08-16T19:45:06.138Z,77.90
2017-08-16T19:47:34.603Z,79.10
2017-08-16T19:50:03.086Z,81.00
2017-08-16T19:52:31.527Z,84.70
2017-08-16T19:55:00.741Z,86.30
2017-08-16T19:57:29.220Z,86.50
2017-08-16T19:59:58.083Z,87.20
2017-08-16T20:02:26.555Z,86.90
2017-08-16T20:04:55.044Z,87.30
2017-08-16T20:07:23.509Z,87.70
2017-08-16T20:09:51.769Z,87.80
2017-08-16T20:12:20.657Z,87.80
2017-08-16T20:14:49.098Z,86.80
2017-08-16T20:17:17.756Z,86.90
2017-08-16T20:19:46.613Z,86.60
2017-08-16T20:22:15.864Z,86.40
2017-08-16T20:24:44.322Z,87.00
2017-08-16T20:27:13.164Z,86.90
2017-08-16T20:29:41.627Z,86.50
2017-08-16T20:32:10.139Z,86.20
2017-08-16T20:34:38.981Z,85.40
2017-08-16T20:37:07.818Z,84.80
2017-08-16T20:39:36.679Z,84.50
2017-08-16T20:42:05.113Z,86.20
2017-08-16T20:44:34.740Z,88.30
2017-08-16T20:47:02.867Z,91.40
2017-08-16T20:49:32.102Z,93.60
2017-08-16T20:52:00.615Z,95.50
2017-08-16T20:56:58.906Z,97.80
2017-08-16T20:59:28.619Z,97.10
2017-08-16T21:01:57.821Z,96.90
2017-08-16T21:04:27.039Z,97.40
2017-08-16T21:06:56.662Z,96.00
2017-08-16T21:09:25.505Z,94.50
2017-08-16T21:11:54.328Z,90.30
2017-08-16T21:14:22.837Z,90.80
2017-08-16T21:16:51.311Z,89.60
2017-08-16T21:19:20.936Z,89.50
2017-08-16T21:21:50.169Z,87.80
2017-08-16T21:24:19.037Z,86.30
2017-08-16T21:26:48.283Z,84.90
2017-08-16T21:29:17.482Z,86.10
2017-08-16T21:31:47.056Z,85.50
2017-08-16T21:34:15.529Z,84.80
2017-08-16T21:36:44.750Z,83.90
2017-08-16T21:39:14.021Z,83.60
2017-08-16T21:41:42.452Z,83.40
2017-08-16T21:44:10.886Z,83.00
2017-08-16T21:46:39.770Z,83.30
2017-08-16T21:49:08.967Z,84.20
2017-08-16T21:51:37.841Z,82.80
2017-08-16T21:54:07.420Z,82.80
2017-08-16T21:56:35.860Z,84.10
2017-08-16T21:59:05.800Z,85.70
2017-08-16T22:04:03.659Z,85.40
2017-08-16T22:06:32.093Z,84.90
2017-08-16T22:09:00.570Z,84.10
2017-08-16T22:11:29.825Z,83.90
2017-08-16T22:13:58.654Z,82.90
2017-08-16T22:16:28.153Z,83.50
2017-08-16T22:21:26.159Z,83.00
2017-08-16T22:23:54.979Z,83.00
2017-08-16T22:26:23.409Z,83.80
2017-08-16T22:28:52.275Z,83.40
2017-08-16T22:31:20.725Z,83.40
2017-08-16T22:33:49.985Z,82.50
2017-08-16T22:36:19.184Z,83.00
2017-08-16T22:41:17.719Z,83.40
2017-08-16T22:43:46.920Z,83.40
2017-08-16T22:46:15.409Z,83.10
2017-08-16T22:48:44.253Z,82.80
2017-08-16T22:51:13.128Z,83.10
2017-08-16T22:53:41.560Z,83.40
2017-08-16T22:56:10.416Z,83.30
2017-08-16T22:58:39.251Z,83.10
2017-08-16T23:01:08.489Z,83.80
2017-08-16T23:03:36.921Z,85.00
2017-08-16T23:06:05.493Z,85.70
2017-08-16T23:08:34.330Z,85.10
2017-08-16T23:11:02.797Z,86.20
2017-08-16T23:13:31.687Z,85.90
2017-08-16T23:18:30.392Z,87.90
2017-08-16T23:20:59.595Z,88.80
2017-08-16T23:23:28.030Z,89.30
2017-08-16T23:28:26.339Z,89.80
2017-08-16T23:30:54.785Z,92.30
2017-08-16T23:33:23.578Z,92.70
2017-08-16T23:35:52.400Z,93.30
2017-08-16T23:38:20.849Z,93.10
2017-08-16T23:40:50.087Z,92.50
2017-08-16T23:43:19.271Z,92.40
2017-08-16T23:45:48.112Z,92.20
2017-08-16T23:48:18.087Z,94.20
2017-08-16T23:50:47.667Z,95.30
2017-08-16T23:53:16.856Z,95.60
2017-08-16T23:55:45.325Z,96.40
2017-08-16T23:58:13.759Z,96.10
